createdAt,value
2022-08-07T00:02:35.549Z,1.45
2022-08-07T00:04:15.521Z,1.63
2022-08-07T00:06:51.186Z,1.63
2022-08-07T00:09:21.316Z,1.50
2022-08-07T00:11:55.362Z,2.00
2022-08-07T00:14:29.986Z,1.70
2022-08-07T00:16:58.447Z,1.35
2022-08-07T00:20:00.380Z,1.30
2022-08-07T00:22:13.708Z,1.70
2022-08-07T00:24:52.600Z,1.25
2022-08-07T00:27:20.349Z,1.67
2022-08-07T00:29:51.726Z,1.50
2022-08-07T00:32:19.342Z,1.60
2022-08-07T00:34:55.973Z,1.80
2022-08-07T00:37:24.983Z,1.65
2022-08-07T00:39:57.126Z,1.48
2022-08-07T00:42:25.473Z,2.83
2022-08-07T00:44:58.347Z,1.90
2022-08-07T00:48:07.951Z,1.50
2022-08-07T00:50:19.476Z,1.65
2022-08-07T00:53:01.909Z,1.52
2022-08-07T00:56:03.021Z,2.13
2022-08-07T00:58:17.415Z,2.08
2022-08-07T01:00:54.007Z,1.45
2022-08-07T01:03:55.510Z,1.52
2022-08-07T01:06:10.740Z,1.88
2022-08-07T01:08:51.443Z,2.00
2022-08-07T01:12:09.280Z,1.60
2022-08-07T01:14:09.242Z,1.90
2022-08-07T01:16:38.867Z,1.80
2022-08-07T01:19:18.396Z,1.23
2022-08-07T01:21:53.387Z,1.60
2022-08-07T01:24:27.048Z,1.58
2022-08-07T01:26:54.778Z,1.67
2022-08-07T01:29:27.873Z,1.55
2022-08-07T01:31:59.856Z,1.30
2022-08-07T01:34:31.666Z,1.55
2022-08-07T01:37:04.823Z,1.45
2022-08-07T01:39:41.412Z,1.80
2022-08-07T01:42:37.771Z,1.40
2022-08-07T01:45:17.798Z,1.48
2022-08-07T01:48:20.136Z,1.50
2022-08-07T01:50:37.709Z,1.50
2022-08-07T01:53:10.282Z,1.48
2022-08-07T01:55:51.874Z,1.60
2022-08-07T01:58:29.490Z,1.42
2022-08-07T02:01:09.810Z,1.40
2022-08-07T02:03:55.663Z,1.27
2022-08-07T02:06:32.044Z,1.27
2022-08-07T02:09:05.858Z,1.48
2022-08-07T02:12:03.391Z,1.70
2022-08-07T02:14:40.483Z,1.38
2022-08-07T02:17:27.563Z,1.40
2022-08-07T02:20:04.452Z,1.50
2022-08-07T02:22:38.354Z,1.40
2022-08-07T02:25:17.423Z,1.70
2022-08-07T02:27:56.232Z,1.80
2022-08-07T02:30:24.965Z,1.30
2022-08-07T02:33:00.761Z,1.65
2022-08-07T02:36:28.943Z,1.45
2022-08-07T02:38:31.561Z,1.63
2022-08-07T02:41:03.715Z,1.77
2022-08-07T02:43:35.419Z,1.85
2022-08-07T02:46:08.188Z,1.80
2022-08-07T02:48:37.048Z,1.60
2022-08-07T02:51:29.241Z,1.92
2022-08-07T02:53:57.361Z,1.70
2022-08-07T02:56:28.996Z,1.60
2022-08-07T02:59:01.405Z,1.70
2022-08-07T03:01:36.429Z,2.17
2022-08-07T03:04:13.998Z,2.00
2022-08-07T03:06:44.694Z,1.90
2022-08-07T03:09:14.673Z,2.10
2022-08-07T03:12:05.213Z,2.10
2022-08-07T03:14:38.003Z,1.92
2022-08-07T03:17:09.957Z,1.70
2022-08-07T03:19:38.222Z,1.90
2022-08-07T03:22:18.921Z,2.10
2022-08-07T03:24:48.866Z,1.52
2022-08-07T03:27:30.373Z,1.60
2022-08-07T03:30:07.276Z,1.70
2022-08-07T03:32:40.305Z,1.95
2022-08-07T03:35:26.234Z,2.17
2022-08-07T03:37:57.085Z,1.90
2022-08-07T03:40:36.082Z,1.83
2022-08-07T03:43:09.969Z,1.80
2022-08-07T03:45:47.486Z,1.60
2022-08-07T03:48:17.533Z,1.63
2022-08-07T03:50:56.101Z,2.25
2022-08-07T03:54:05.673Z,1.42
2022-08-07T03:56:33.643Z,1.60
2022-08-07T03:59:10.054Z,1.85
2022-08-07T04:01:45.673Z,1.70
2022-08-07T04:04:17.625Z,1.70
2022-08-07T04:06:50.876Z,1.75
2022-08-07T04:09:23.331Z,2.13
2022-08-07T04:12:21.336Z,2.40
2022-08-07T04:14:47.815Z,1.77
2022-08-07T04:17:21.006Z,1.70
2022-08-07T04:19:52.270Z,1.85
2022-08-07T04:22:28.835Z,2.00
2022-08-07T04:25:01.146Z,2.40
2022-08-07T04:27:36.171Z,2.17
2022-08-07T04:30:35.372Z,2.10
2022-08-07T04:33:08.796Z,2.00
2022-08-07T04:35:39.311Z,2.30
2022-08-07T04:38:13.225Z,2.20
2022-08-07T04:40:52.656Z,2.30
2022-08-07T04:44:11.722Z,2.00
2022-08-07T04:46:29.604Z,1.92
2022-08-07T04:49:18.102Z,2.17
2022-08-07T04:51:57.785Z,2.28
2022-08-07T04:54:32.137Z,2.00
2022-08-07T04:58:11.156Z,2.50
2022-08-07T05:00:14.582Z,2.60
2022-08-07T05:02:53.597Z,2.45
2022-08-07T05:05:53.345Z,2.30
2022-08-07T05:08:16.069Z,2.53
2022-08-07T05:10:46.488Z,2.33
2022-08-07T05:14:54.377Z,2.38
2022-08-07T05:16:07.042Z,2.67
2022-08-07T05:18:37.672Z,2.65
2022-08-07T05:21:09.137Z,1.67
2022-08-07T05:23:40.815Z,2.50
2022-08-07T05:26:18.844Z,2.83
2022-08-07T05:28:55.822Z,2.28
2022-08-07T05:31:35.019Z,2.08
2022-08-07T05:34:12.534Z,2.50
2022-08-07T05:36:43.828Z,2.60
2022-08-07T05:40:13.449Z,2.53
2022-08-07T05:42:34.875Z,1.30
2022-08-07T05:45:14.571Z,2.42
2022-08-07T05:48:01.525Z,2.55
2022-08-07T05:50:39.513Z,2.42
2022-08-07T05:54:09.238Z,2.33
2022-08-07T05:56:03.869Z,1.80
2022-08-07T05:58:39.351Z,2.42
2022-08-07T06:01:11.311Z,2.00
2022-08-07T06:03:56.325Z,2.33
2022-08-07T06:06:29.752Z,2.05
2022-08-07T06:09:01.114Z,2.55
2022-08-07T06:11:32.546Z,2.53
2022-08-07T06:14:12.619Z,2.22
2022-08-07T06:16:50.318Z,1.88
2022-08-07T06:19:47.782Z,2.08
2022-08-07T06:22:23.512Z,2.20
2022-08-07T06:25:03.010Z,2.35
2022-08-07T06:27:44.350Z,2.15
2022-08-07T06:30:31.768Z,2.20
2022-08-07T06:33:16.172Z,2.10
2022-08-07T06:36:06.837Z,1.80
2022-08-07T06:38:36.691Z,1.88
2022-08-07T06:41:07.291Z,1.58
2022-08-07T06:43:40.002Z,1.27
2022-08-07T06:46:15.635Z,1.58
2022-08-07T06:49:00.311Z,1.58
2022-08-07T06:51:34.730Z,0.73
2022-08-07T06:55:28.822Z,1.30
2022-08-07T06:56:57.292Z,1.48
2022-08-07T07:00:13.312Z,1.60
2022-08-07T07:02:48.839Z,1.63
2022-08-07T07:05:12.837Z,1.30
2022-08-07T07:07:59.402Z,1.50
2022-08-07T07:10:31.201Z,1.38
2022-08-07T07:13:02.899Z,1.45
2022-08-07T07:15:36.081Z,1.50
2022-08-07T07:18:09.615Z,1.48
2022-08-07T07:20:38.724Z,1.55
2022-08-07T07:24:08.641Z,1.48
2022-08-07T07:26:33.869Z,1.38
2022-08-07T07:29:39.747Z,2.28
2022-08-07T07:31:44.398Z,1.10
2022-08-07T07:34:17.209Z,0.73
2022-08-07T07:36:47.987Z,1.50
2022-08-07T07:39:21.367Z,1.95
2022-08-07T07:42:13.198Z,1.90
2022-08-07T07:44:41.001Z,1.65
2022-08-07T07:47:22.730Z,1.73
2022-08-07T07:50:32.958Z,1.80
2022-08-07T07:52:40.741Z,1.88
2022-08-07T07:55:10.959Z,1.50
2022-08-07T07:57:51.843Z,1.55
2022-08-07T08:00:31.472Z,1.27
2022-08-07T08:03:06.741Z,1.55
2022-08-07T08:05:54.005Z,1.83
2022-08-07T08:08:35.160Z,1.58
2022-08-07T08:11:05.254Z,1.40
2022-08-07T08:13:53.340Z,1.35
2022-08-07T08:16:25.590Z,0.73
2022-08-07T08:18:55.770Z,1.70
2022-08-07T08:21:58.576Z,1.67
2022-08-07T08:24:47.828Z,1.23
2022-08-07T08:27:33.532Z,1.65
2022-08-07T08:30:04.974Z,1.50
2022-08-07T08:32:38.553Z,1.33
2022-08-07T08:35:08.024Z,1.52
2022-08-07T08:38:08.131Z,1.20
2022-08-07T08:40:28.601Z,1.30
2022-08-07T08:42:59.520Z,1.50
2022-08-07T08:45:41.556Z,1.10
2022-08-07T08:48:28.378Z,1.20
2022-08-07T08:51:03.468Z,1.30
2022-08-07T08:53:45.974Z,1.33
2022-08-07T08:56:17.347Z,1.30
2022-08-07T08:58:50.583Z,1.58
2022-08-07T09:01:30.021Z,1.33
2022-08-07T09:04:15.804Z,1.27
2022-08-07T09:06:49.100Z,1.30
2022-08-07T09:09:30.290Z,2.55
2022-08-07T09:12:30.544Z,1.10
2022-08-07T09:16:24.754Z,1.45
2022-08-07T09:18:11.485Z,1.30
2022-08-07T09:20:58.598Z,1.52
2022-08-07T09:24:32.255Z,1.38
2022-08-07T09:26:27.780Z,1.38
2022-08-07T09:30:03.929Z,1.75
2022-08-07T09:31:48.681Z,1.60
2022-08-07T09:34:21.678Z,1.65
2022-08-07T09:36:59.617Z,1.30
2022-08-07T09:39:55.328Z,1.25
2022-08-07T09:42:32.925Z,0.95
2022-08-07T09:46:29.084Z,1.30
2022-08-07T09:48:03.974Z,1.30
2022-08-07T09:50:51.398Z,1.25
2022-08-07T09:53:22.525Z,1.70
2022-08-07T09:56:04.612Z,1.17
2022-08-07T09:58:50.998Z,1.08
2022-08-07T10:01:52.270Z,1.35
2022-08-07T10:04:33.089Z,1.05
2022-08-07T10:07:24.207Z,1.25
2022-08-07T10:10:02.979Z,1.00
2022-08-07T10:12:45.882Z,1.02
2022-08-07T10:15:37.587Z,1.08
2022-08-07T10:18:29.190Z,1.27
2022-08-07T10:21:19.808Z,1.20
2022-08-07T10:24:10.051Z,1.20
2022-08-07T10:26:44.994Z,0.90
2022-08-07T10:29:45.645Z,1.00
2022-08-07T10:32:52.342Z,0.88
2022-08-07T10:35:20.450Z,1.02
2022-08-07T10:38:35.162Z,1.40
2022-08-07T10:40:53.106Z,1.35
2022-08-07T10:43:34.186Z,0.88
2022-08-07T10:46:05.976Z,1.27
2022-08-07T10:48:37.166Z,1.58
2022-08-07T10:51:07.484Z,1.20
2022-08-07T10:53:48.588Z,1.27
2022-08-07T10:56:31.430Z,1.42
2022-08-07T10:59:07.757Z,1.38
2022-08-07T11:01:52.060Z,1.27
2022-08-07T11:04:37.682Z,1.23
2022-08-07T11:07:24.668Z,1.23
2022-08-07T11:10:08.533Z,1.15
2022-08-07T11:12:43.958Z,1.27
2022-08-07T11:15:20.188Z,1.00
2022-08-07T11:18:03.764Z,1.17
2022-08-07T11:20:36.861Z,1.33
2022-08-07T11:23:09.141Z,1.23
2022-08-07T11:25:42.591Z,0.88
2022-08-07T11:28:24.855Z,1.50
2022-08-07T11:30:55.954Z,1.50
2022-08-07T11:33:53.795Z,1.08
2022-08-07T11:36:20.542Z,1.08
2022-08-07T11:38:59.774Z,1.10
2022-08-07T11:42:00.237Z,1.40
2022-08-07T11:44:26.148Z,1.45
2022-08-07T11:46:59.989Z,1.05
2022-08-07T11:50:11.484Z,4.03
2022-08-07T11:52:43.563Z,1.05
2022-08-07T11:55:18.968Z,4.38
2022-08-07T11:58:13.148Z,1.20
2022-08-07T12:01:02.203Z,0.85
2022-08-07T12:03:45.218Z,0.80
2022-08-07T12:06:39.920Z,0.98
2022-08-07T12:09:16.831Z,1.00
2022-08-07T12:12:10.924Z,1.33
2022-08-07T12:14:56.345Z,1.00
2022-08-07T12:17:35.289Z,1.08
2022-08-07T12:20:12.934Z,1.23
2022-08-07T12:22:56.510Z,1.20
2022-08-07T12:26:06.043Z,1.38
2022-08-07T12:28:42.540Z,1.17
2022-08-07T12:31:17.190Z,1.45
2022-08-07T12:34:01.553Z,1.55
2022-08-07T12:36:32.866Z,1.40
2022-08-07T12:39:03.290Z,1.23
2022-08-07T12:41:52.112Z,1.30
2022-08-07T12:44:21.623Z,1.30
2022-08-07T12:46:56.176Z,0.93
2022-08-07T12:49:44.663Z,1.05
2022-08-07T12:52:18.172Z,1.27
2022-08-07T12:55:03.725Z,1.13
2022-08-07T12:57:59.152Z,1.40
2022-08-07T13:00:32.964Z,1.63
2022-08-07T13:03:13.125Z,1.88
2022-08-07T13:06:01.924Z,1.20
2022-08-07T13:08:42.883Z,1.38
2022-08-07T13:11:19.421Z,1.50
2022-08-07T13:13:53.786Z,1.20
2022-08-07T13:16:30.378Z,1.10
2022-08-07T13:19:01.898Z,1.48
2022-08-07T13:21:51.787Z,0.20
2022-08-07T13:24:25.890Z,0.65
2022-08-07T13:27:02.930Z,1.10
2022-08-07T13:29:37.408Z,1.17
2022-08-07T13:32:31.366Z,0.65
2022-08-07T13:35:03.255Z,0.30
2022-08-07T13:37:41.758Z,0.45
2022-08-07T13:40:34.845Z,0.73
2022-08-07T13:43:03.509Z,0.60
2022-08-07T13:46:11.929Z,1.20
2022-08-07T13:48:33.670Z,1.35
2022-08-07T13:51:27.532Z,1.15
2022-08-07T13:53:59.455Z,1.08
2022-08-07T13:56:36.037Z,1.40
2022-08-07T13:59:12.306Z,1.15
2022-08-07T14:01:51.614Z,0.70
2022-08-07T14:04:36.212Z,1.20
2022-08-07T14:07:09.388Z,0.70
2022-08-07T14:10:12.080Z,0.73
2022-08-07T14:12:32.071Z,1.00
2022-08-07T14:15:06.139Z,0.95
2022-08-07T14:18:15.963Z,0.95
2022-08-07T14:20:43.457Z,1.20
2022-08-07T14:23:31.154Z,1.10
2022-08-07T14:26:08.589Z,0.90
2022-08-07T14:28:57.700Z,0.60
2022-08-07T14:31:25.928Z,0.13
2022-08-07T14:34:20.020Z,0.70
2022-08-07T14:36:56.411Z,0.57
2022-08-07T14:40:17.597Z,0.22
2022-08-07T14:42:23.079Z,0.30
2022-08-07T14:44:53.496Z,0.30
2022-08-07T14:47:23.155Z,0.25
2022-08-07T14:49:58.315Z,0.43
2022-08-07T14:52:28.805Z,0.30
2022-08-07T14:54:58.454Z,0.30
2022-08-07T15:00:20.772Z,0.30
2022-08-07T15:02:58.802Z,0.60
2022-08-07T15:05:27.582Z,0.50
2022-08-07T15:07:58.987Z,0.20
2022-08-07T15:10:30.052Z,0.30
2022-08-07T15:13:00.829Z,0.20
2022-08-07T15:15:38.480Z,0.50
2022-08-07T15:21:03.990Z,0.45
2022-08-07T15:25:02.316Z,0.40
2022-08-07T15:26:33.030Z,0.70
2022-08-07T15:30:04.879Z,0.70
2022-08-07T15:32:01.578Z,0.77
2022-08-07T15:34:34.096Z,0.60
2022-08-07T15:37:06.859Z,0.73
2022-08-07T15:39:57.646Z,0.60
2022-08-07T15:42:48.175Z,0.40
2022-08-07T15:45:56.612Z,0.60
2022-08-07T15:48:21.377Z,0.50
2022-08-07T15:53:52.769Z,0.65
2022-08-07T15:56:24.254Z,0.70
2022-08-07T15:58:53.504Z,0.60
2022-08-07T16:01:38.714Z,0.70
2022-08-07T16:04:14.614Z,0.50
2022-08-07T16:06:44.223Z,0.30
2022-08-07T16:09:22.390Z,0.32
2022-08-07T16:12:00.085Z,0.63
2022-08-07T16:14:34.145Z,0.30
2022-08-07T16:17:16.333Z,0.60
2022-08-07T16:20:33.766Z,0.43
2022-08-07T16:23:54.023Z,0.47
2022-08-07T16:26:14.540Z,0.50
2022-08-07T16:30:06.123Z,0.65
2022-08-07T16:31:57.388Z,0.85
2022-08-07T16:34:39.582Z,0.93
2022-08-07T16:38:03.968Z,1.23
2022-08-07T16:40:30.774Z,1.02
2022-08-07T16:43:02.471Z,0.70
2022-08-07T16:46:47.380Z,1.05
2022-08-07T16:50:27.246Z,1.10
2022-08-07T16:52:06.469Z,0.82
2022-08-07T16:54:55.263Z,1.00
2022-08-07T16:58:03.242Z,1.00
2022-08-07T17:00:29.357Z,0.88
2022-08-07T17:03:06.295Z,0.80
2022-08-07T17:06:01.927Z,0.90
2022-08-07T17:09:09.566Z,1.00
2022-08-07T17:12:03.934Z,0.80
2022-08-07T17:14:22.159Z,0.82
2022-08-07T17:16:56.158Z,1.25
2022-08-07T17:20:01.487Z,1.13
2022-08-07T17:22:29.939Z,1.10
2022-08-07T17:25:14.135Z,1.23
2022-08-07T17:27:51.697Z,1.05
2022-08-07T17:30:26.705Z,0.90
2022-08-07T17:33:02.900Z,0.90
2022-08-07T17:35:54.811Z,0.80
2022-08-07T17:38:33.299Z,0.80
2022-08-07T17:42:00.596Z,0.82
2022-08-07T17:44:02.835Z,1.10
2022-08-07T17:46:36.944Z,1.00
2022-08-07T17:49:11.267Z,0.80
2022-08-07T17:51:59.642Z,1.00
2022-08-07T17:54:53.271Z,0.80
2022-08-07T17:57:24.130Z,0.93
2022-08-07T17:59:53.658Z,0.90
2022-08-07T18:02:27.263Z,0.80
2022-08-07T18:05:01.346Z,0.80
2022-08-07T18:07:56.114Z,0.68
2022-08-07T18:10:29.092Z,0.70
2022-08-07T18:13:23.227Z,0.40
2022-08-07T18:16:02.717Z,0.70
2022-08-07T18:21:00.696Z,0.43
2022-08-07T18:21:37.089Z,0.22
2022-08-07T18:24:33.843Z,0.45
2022-08-07T18:27:20.942Z,0.32
2022-08-07T18:30:06.594Z,0.68
2022-08-07T18:33:12.199Z,0.50
2022-08-07T18:35:51.863Z,0.52
2022-08-07T18:38:56.136Z,0.43
2022-08-07T18:41:20.611Z,0.40
2022-08-07T18:43:57.795Z,1.52
2022-08-07T18:46:29.652Z,0.60
2022-08-07T18:50:30.132Z,0.80
2022-08-07T18:52:35.247Z,0.93
2022-08-07T18:54:52.964Z,0.88
2022-08-07T18:57:31.458Z,0.77
2022-08-07T19:00:33.521Z,0.80
2022-08-07T19:03:00.178Z,1.40
2022-08-07T19:06:02.618Z,1.10
2022-08-07T19:08:23.800Z,1.30
2022-08-07T19:10:55.305Z,1.92
2022-08-07T19:13:26.629Z,1.60
2022-08-07T19:16:04.461Z,1.42
2022-08-07T19:18:49.430Z,1.70
2022-08-07T19:21:44.137Z,1.83
2022-08-07T19:24:30.650Z,1.73
2022-08-07T19:28:57.547Z,1.50
2022-08-07T19:31:05.818Z,1.85
2022-08-07T19:32:45.149Z,1.42
2022-08-07T19:35:14.608Z,1.65
2022-08-07T19:37:56.894Z,1.55
2022-08-07T19:40:31.505Z,1.83
2022-08-07T19:43:02.311Z,1.65
2022-08-07T19:46:04.790Z,1.75
2022-08-07T19:48:24.489Z,1.80
2022-08-07T19:50:53.658Z,1.80
2022-08-07T19:54:30.944Z,1.55
2022-08-07T19:57:52.020Z,1.98
2022-08-07T19:59:02.616Z,1.88
2022-08-07T20:01:52.256Z,1.77
2022-08-07T20:04:31.090Z,1.58
2022-08-07T20:07:00.339Z,1.83
2022-08-07T20:10:33.607Z,2.13
2022-08-07T20:12:34.552Z,1.80
2022-08-07T20:15:04.447Z,1.63
2022-08-07T20:17:38.599Z,1.85
2022-08-07T20:20:08.442Z,2.05
2022-08-07T20:22:40.692Z,1.83
2022-08-07T20:25:12.954Z,2.30
2022-08-07T20:27:57.950Z,1.90
2022-08-07T20:30:31.543Z,1.83
2022-08-07T20:33:00.307Z,1.52
2022-08-07T20:35:33.580Z,1.80
2022-08-07T20:38:01.980Z,1.83
2022-08-07T20:40:34.555Z,1.95
2022-08-07T20:43:14.518Z,2.00
2022-08-07T20:46:28.565Z,2.05
2022-08-07T20:48:36.757Z,1.70
2022-08-07T20:51:09.443Z,2.17
2022-08-07T20:54:04.171Z,2.05
2022-08-07T20:56:30.218Z,1.80
2022-08-07T20:58:59.705Z,2.10
2022-08-07T21:01:29.768Z,1.80
2022-08-07T21:04:22.799Z,2.20
2022-08-07T21:06:53.447Z,2.17
2022-08-07T21:09:24.634Z,1.83
2022-08-07T21:11:57.658Z,2.00
2022-08-07T21:14:33.559Z,2.05
2022-08-07T21:18:00.399Z,2.25
2022-08-07T21:20:04.698Z,2.00
2022-08-07T21:22:34.271Z,2.35
2022-08-07T21:25:12.008Z,1.95
2022-08-07T21:28:06.653Z,2.10
2022-08-07T21:30:45.733Z,2.05
2022-08-07T21:33:16.191Z,2.38
2022-08-07T21:36:04.928Z,2.15
2022-08-07T21:38:44.209Z,2.20
2022-08-07T21:41:19.108Z,2.33
2022-08-07T21:43:55.947Z,2.55
2022-08-07T21:46:31.866Z,2.20
2022-08-07T21:49:04.731Z,2.15
2022-08-07T21:51:54.522Z,1.85
2022-08-07T21:54:26.894Z,2.40
2022-08-07T21:57:03.631Z,2.42
2022-08-07T22:00:02.789Z,2.47
2022-08-07T22:02:27.103Z,2.00
2022-08-07T22:04:56.138Z,2.20
2022-08-07T22:07:31.921Z,1.98
2022-08-07T22:10:19.922Z,2.20
2022-08-07T22:12:51.888Z,1.80
2022-08-07T22:16:42.141Z,2.08
2022-08-07T22:18:16.816Z,2.45
2022-08-07T22:20:47.637Z,2.22
2022-08-07T22:23:21.480Z,2.30
2022-08-07T22:25:57.805Z,2.13
2022-08-07T22:28:31.216Z,2.50
2022-08-07T22:31:06.672Z,2.30
2022-08-07T22:33:57.181Z,2.70
2022-08-07T22:36:32.637Z,2.67
2022-08-07T22:39:04.770Z,2.08
2022-08-07T22:42:04.095Z,2.88
2022-08-07T22:44:25.876Z,2.72
2022-08-07T22:47:09.164Z,2.70
2022-08-07T22:49:54.035Z,2.70
2022-08-07T22:52:37.426Z,2.17
2022-08-07T22:55:29.901Z,2.33
2022-08-07T22:58:16.580Z,2.38
2022-08-07T23:00:52.210Z,2.50
2022-08-07T23:03:59.050Z,2.30
2022-08-07T23:06:35.350Z,2.67
2022-08-07T23:10:03.961Z,2.75
2022-08-07T23:12:07.542Z,2.47
2022-08-07T23:14:47.628Z,3.10
2022-08-07T23:17:41.593Z,3.40
2022-08-07T23:20:38.468Z,2.85
2022-08-07T23:24:06.427Z,2.60
2022-08-07T23:26:18.322Z,2.50
2022-08-07T23:29:42.627Z,3.00
2022-08-07T23:34:19.549Z,2.80
2022-08-07T23:35:02.487Z,2.92
2022-08-07T23:37:38.615Z,2.72
2022-08-07T23:40:35.420Z,2.90
2022-08-07T23:43:22.476Z,2.28
2022-08-07T23:46:03.921Z,2.72
2022-08-07T23:48:47.121Z,2.50
2022-08-07T23:52:59.451Z,2.67
2022-08-07T23:54:20.080Z,3.10
2022-08-07T23:57:04.412Z,3.00
